Time;durP1;ratioP1;P1;durP2;ratioP2;P2;SDS_P1;SDS_P2;PMS_P1;PMS_P2;Temp;Humidity;BMP_temperature;BMP_pressure;BME280_temperature;BME280_humidity;BME280_pressure;Samples;Min_cycle;Max_cycle;Signal;HPM_P1;HPM_P2
2022/03/07 00:01:05;;;;;;;16.85;8.93;;;3.70;99.90;;;;;;5001252;28;20382;-72
2022/03/07 00:03:31;;;;;;;18.52;9.15;;;3.70;99.90;;;;;;4985693;28;20053;-73
2022/03/07 00:05:56;;;;;;;14.98;8.77;;;3.70;99.90;;;;;;4994799;28;20449;-73
2022/03/07 00:08:22;;;;;;;17.27;8.85;;;3.60;99.90;;;;;;4996363;28;20072;-72
2022/03/07 00:10:48;;;;;;;16.25;7.82;;;3.50;99.90;;;;;;5009385;28;20026;-72
2022/03/07 00:13:14;;;;;;;15.23;9.57;;;3.50;99.90;;;;;;5009580;28;20033;-73
2022/03/07 00:15:40;;;;;;;13.65;8.38;;;3.40;99.90;;;;;;4991552;28;20109;-73
2022/03/07 00:18:06;;;;;;;14.90;8.23;;;3.40;99.90;;;;;;4995823;28;20062;-73
2022/03/07 00:20:32;;;;;;;17.90;8.60;;;3.30;99.90;;;;;;4990501;28;20502;-73
2022/03/07 00:22:58;;;;;;;20.55;8.63;;;3.30;99.90;;;;;;4989591;28;20034;-73
2022/03/07 00:25:24;;;;;;;16.05;8.93;;;3.20;99.90;;;;;;4991981;28;20387;-73
2022/03/07 00:27:50;;;;;;;18.25;8.95;;;3.20;99.90;;;;;;4978782;28;20030;-73
2022/03/07 00:30:17;;;;;;;15.30;8.95;;;3.10;99.90;;;;;;4999218;28;20561;-72
2022/03/07 00:32:43;;;;;;;14.60;9.48;;;3.10;99.90;;;;;;5003247;28;20101;-73
2022/03/07 00:35:10;;;;;;;15.20;8.90;;;3.10;99.90;;;;;;5008175;28;20133;-72
2022/03/07 00:37:36;;;;;;;18.17;9.05;;;3.10;99.90;;;;;;5007272;28;20371;-73
2022/03/07 00:40:02;;;;;;;13.57;8.73;;;3.10;99.90;;;;;;4990590;28;20109;-73
2022/03/07 00:42:27;;;;;;;18.45;8.98;;;3.00;99.90;;;;;;4989723;28;20476;-73
2022/03/07 00:44:53;;;;;;;13.32;8.52;;;2.90;99.90;;;;;;4994721;28;20037;-73
2022/03/07 00:47:18;;;;;;;15.80;9.60;;;2.90;99.90;;;;;;4992368;28;20045;-73
2022/03/07 00:49:44;;;;;;;14.95;8.75;;;2.90;99.90;;;;;;5009453;28;20026;-73
2022/03/07 00:52:10;;;;;;;17.60;9.40;;;2.80;99.90;;;;;;4991613;28;20030;-73
2022/03/07 00:54:37;;;;;;;16.35;8.93;;;2.80;99.90;;;;;;5005040;28;20037;-73
2022/03/07 00:57:02;;;;;;;15.00;8.68;;;2.80;99.90;;;;;;4991019;28;20294;-73
2022/03/07 00:59:28;;;;;;;15.20;8.75;;;2.70;99.90;;;;;;4995371;28;20042;-73
2022/03/07 01:01:53;;;;;;;14.85;8.73;;;2.70;99.90;;;;;;5006369;28;20084;-73
2022/03/07 01:04:19;;;;;;;17.95;9.23;;;2.60;99.90;;;;;;5005613;28;20112;-73
2022/03/07 01:06:45;;;;;;;16.63;9.68;;;2.60;99.90;;;;;;4999986;28;20034;-73
2022/03/07 01:09:10;;;;;;;15.15;9.23;;;2.60;99.90;;;;;;5007029;28;20424;-72
2022/03/07 01:11:36;;;;;;;17.92;9.32;;;2.50;99.90;;;;;;4989654;28;20030;-73
2022/03/07 01:14:02;;;;;;;16.83;9.63;;;2.50;99.90;;;;;;4989600;28;20029;-73
2022/03/07 01:16:28;;;;;;;18.83;9.30;;;2.50;99.90;;;;;;5001943;28;20057;-73
2022/03/07 01:18:53;;;;;;;18.25;9.43;;;2.40;99.90;;;;;;4993000;28;20035;-73
2022/03/07 01:21:19;;;;;;;16.17;9.73;;;2.40;99.90;;;;;;4997003;28;20806;-73
2022/03/07 01:23:44;;;;;;;14.27;9.15;;;2.40;99.90;;;;;;5008524;28;20113;-73
2022/03/07 01:26:10;;;;;;;14.50;9.15;;;2.30;99.90;;;;;;4977418;28;20109;-73
2022/03/07 01:28:36;;;;;;;22.52;9.05;;;2.30;99.90;;;;;;4987836;28;20034;-73
2022/03/07 01:31:01;;;;;;;16.58;8.80;;;2.30;99.90;;;;;;4989525;28;20088;-73
2022/03/07 01:33:27;;;;;;;14.40;9.07;;;2.20;99.90;;;;;;5001881;28;20279;-72
2022/03/07 01:35:52;;;;;;;15.50;9.40;;;2.20;99.90;;;;;;4996068;28;20386;-73
2022/03/07 01:38:18;;;;;;;19.67;9.90;;;2.20;99.90;;;;;;5007238;28;20045;-72
2022/03/07 01:40:45;;;;;;;14.60;8.68;;;2.10;99.90;;;;;;4988501;28;20034;-73
2022/03/07 01:43:11;;;;;;;16.42;9.50;;;2.10;99.90;;;;;;5003237;28;20061;-73
2022/03/07 01:45:41;;;;;;;17.95;9.32;;;2.10;99.90;;;;;;5002260;28;20430;-72
2022/03/07 01:48:06;;;;;;;18.15;10.00;;;2.00;99.90;;;;;;4975046;28;20121;-73
2022/03/07 01:50:32;;;;;;;17.88;9.60;;;2.00;99.90;;;;;;4992764;28;20105;-73
2022/03/07 01:52:58;;;;;;;18.10;9.35;;;2.00;99.90;;;;;;5003678;28;20096;-73
2022/03/07 01:55:23;;;;;;;17.55;9.30;;;1.90;99.90;;;;;;5004850;28;20054;-73
2022/03/07 01:57:49;;;;;;;15.52;9.70;;;1.90;99.90;;;;;;4992397;28;20046;-72
2022/03/07 02:00:18;;;;;;;18.92;9.60;;;1.90;99.90;;;;;;4993589;28;20038;-72
2022/03/07 02:02:44;;;;;;;17.15;9.50;;;1.90;99.90;;;;;;4993439;28;20375;-72
2022/03/07 02:05:10;;;;;;;16.75;9.38;;;1.80;99.90;;;;;;5001666;28;20033;-72
2022/03/07 02:07:37;;;;;;;15.85;8.88;;;1.80;99.90;;;;;;5010720;28;20032;-72
2022/03/07 02:10:04;;;;;;;16.73;9.82;;;1.80;99.90;;;;;;4994036;28;20033;-72
2022/03/07 02:12:30;;;;;;;18.27;9.52;;;1.80;99.90;;;;;;4998657;28;20038;-72
2022/03/07 02:14:56;;;;;;;16.38;9.50;;;1.70;99.90;;;;;;4993364;28;20113;-72
2022/03/07 02:17:22;;;;;;;17.13;8.75;;;1.70;99.90;;;;;;5002814;28;20137;-72
2022/03/07 02:19:47;;;;;;;15.05;8.95;;;1.60;99.90;;;;;;4991788;28;20443;-72
2022/03/07 02:22:15;;;;;;;17.92;9.52;;;1.70;99.90;;;;;;4993148;28;20486;-72
2022/03/07 02:24:41;;;;;;;15.00;8.45;;;1.60;99.90;;;;;;5003175;28;20019;-72
2022/03/07 02:27:09;;;;;;;14.23;8.55;;;1.60;99.90;;;;;;4992024;28;20113;-72
2022/03/07 02:29:35;;;;;;;14.35;9.07;;;1.60;99.90;;;;;;5006866;28;20561;-72
2022/03/07 02:32:03;;;;;;;15.32;9.18;;;1.60;99.90;;;;;;5011374;28;20018;-72
2022/03/07 02:34:28;;;;;;;15.02;9.07;;;1.60;99.90;;;;;;5011814;28;20033;-72
2022/03/07 02:36:54;;;;;;;16.42;9.60;;;1.60;99.90;;;;;;4993777;28;20462;-72
2022/03/07 02:39:20;;;;;;;15.77;9.27;;;1.70;99.90;;;;;;4998232;28;20474;-72
2022/03/07 02:41:46;;;;;;;14.73;9.07;;;1.60;99.90;;;;;;4991893;28;20026;-72
2022/03/07 02:44:12;;;;;;;14.52;9.32;;;1.70;99.90;;;;;;4991724;28;20406;-72
2022/03/07 02:46:38;;;;;;;14.70;8.82;;;1.70;99.90;;;;;;4998437;28;20116;-72
2022/03/07 02:49:05;;;;;;;16.33;9.25;;;1.70;99.90;;;;;;5009606;28;20473;-72
2022/03/07 02:51:31;;;;;;;15.32;9.07;;;1.70;99.90;;;;;;5011448;28;20029;-72
2022/03/07 02:53:57;;;;;;;17.38;9.43;;;1.80;99.90;;;;;;4992868;28;20018;-72
2022/03/07 02:56:23;;;;;;;18.08;9.80;;;1.80;99.90;;;;;;5001927;28;20049;-72
2022/03/07 02:58:48;;;;;;;17.98;9.57;;;1.80;99.90;;;;;;4991706;28;20470;-73
2022/03/07 03:01:14;;;;;;;16.52;9.43;;;1.90;99.90;;;;;;4992467;28;20117;-72
2022/03/07 03:03:39;;;;;;;14.02;9.43;;;1.90;99.90;;;;;;4991418;28;20501;-72
2022/03/07 03:06:07;;;;;;;17.48;9.30;;;1.90;99.90;;;;;;4983225;28;20093;-72
2022/03/07 03:08:33;;;;;;;17.60;8.60;;;2.00;99.90;;;;;;5007191;28;20434;-72
2022/03/07 03:10:59;;;;;;;15.23;9.05;;;2.00;99.90;;;;;;5010420;28;20126;-72
2022/03/07 03:13:25;;;;;;;20.05;9.82;;;2.00;99.90;;;;;;5010124;28;20044;-72
2022/03/07 03:15:52;;;;;;;17.02;9.48;;;2.00;99.90;;;;;;5003474;28;20073;-72
2022/03/07 03:18:18;;;;;;;19.50;10.05;;;2.10;99.90;;;;;;4984434;28;20092;-73
2022/03/07 03:20:45;;;;;;;15.32;9.07;;;2.10;99.90;;;;;;5010895;28;20441;-72
2022/03/07 03:23:11;;;;;;;15.25;9.80;;;2.10;99.90;;;;;;4991467;28;20058;-72
2022/03/07 03:25:37;;;;;;;17.42;9.90;;;2.10;99.90;;;;;;4999460;28;20030;-72
2022/03/07 03:28:03;;;;;;;18.10;9.57;;;2.20;99.90;;;;;;4994039;28;20087;-72
2022/03/07 03:30:28;;;;;;;17.88;10.05;;;2.20;99.90;;;;;;5003456;28;20048;-72
2022/03/07 03:32:54;;;;;;;18.15;8.95;;;2.20;99.90;;;;;;4990672;28;20038;-73
2022/03/07 03:35:20;;;;;;;15.98;9.55;;;2.30;99.90;;;;;;4991807;28;20049;-73
2022/03/07 03:37:46;;;;;;;16.73;9.80;;;2.30;99.90;;;;;;4996268;28;20034;-73
2022/03/07 03:40:12;;;;;;;17.98;9.20;;;2.30;99.90;;;;;;5010002;28;20030;-73
2022/03/07 03:42:39;;;;;;;14.05;8.90;;;2.30;99.90;;;;;;5008675;28;20064;-72
2022/03/07 03:45:06;;;;;;;13.88;9.68;;;2.30;99.90;;;;;;4997593;28;20462;-72
2022/03/07 03:47:32;;;;;;;16.45;9.15;;;2.40;99.90;;;;;;4990866;28;20373;-72
2022/03/07 03:49:58;;;;;;;15.57;9.55;;;2.40;99.90;;;;;;4990459;28;20033;-73
2022/03/07 03:52:23;;;;;;;14.63;9.02;;;2.40;99.90;;;;;;4990542;28;20487;-72
2022/03/07 03:54:49;;;;;;;17.13;8.88;;;2.40;99.90;;;;;;5000052;28;20049;-72
2022/03/07 03:57:15;;;;;;;13.20;8.57;;;2.40;99.90;;;;;;4991601;28;20042;-73
2022/03/07 03:59:40;;;;;;;14.55;8.70;;;2.40;99.90;;;;;;4991281;28;20092;-72
2022/03/07 04:02:06;;;;;;;18.13;8.93;;;2.40;99.90;;;;;;5002157;28;20109;-72
2022/03/07 04:04:32;;;;;;;18.02;9.18;;;2.40;99.90;;;;;;5005435;28;20021;-72
2022/03/07 04:06:57;;;;;;;16.08;9.15;;;2.40;99.90;;;;;;4990348;28;20022;-72
2022/03/07 04:09:23;;;;;;;14.80;9.85;;;2.40;99.90;;;;;;4990276;28;20105;-72
2022/03/07 04:11:49;;;;;;;15.75;9.77;;;2.40;99.90;;;;;;4991142;28;20049;-73
2022/03/07 04:14:15;;;;;;;16.95;9.35;;;2.40;99.90;;;;;;4996139;28;20406;-72
2022/03/07 04:16:41;;;;;;;16.88;9.27;;;2.40;99.90;;;;;;4989960;28;20058;-72
2022/03/07 04:19:08;;;;;;;17.63;9.43;;;2.40;99.90;;;;;;4990128;28;20050;-72
2022/03/07 04:21:35;;;;;;;18.13;9.73;;;2.40;99.90;;;;;;4990084;28;20026;-72
2022/03/07 04:24:00;;;;;;;16.23;9.40;;;2.40;99.90;;;;;;5003173;28;20109;-72
2022/03/07 04:26:26;;;;;;;18.55;9.50;;;2.40;99.90;;;;;;4991025;28;20145;-72
2022/03/07 04:28:52;;;;;;;16.38;9.35;;;2.40;99.90;;;;;;4990046;28;20097;-73
2022/03/07 04:31:17;;;;;;;19.70;9.45;;;2.40;99.90;;;;;;4989937;28;20035;-72
2022/03/07 04:33:43;;;;;;;15.75;9.60;;;2.40;99.90;;;;;;4990285;28;20117;-72
2022/03/07 04:36:13;;;;;;;16.55;9.10;;;2.30;99.90;;;;;;5002623;28;20026;-72
2022/03/07 04:38:38;;;;;;;16.88;9.57;;;2.30;99.90;;;;;;5007788;28;20044;-72
2022/03/07 04:41:04;;;;;;;15.40;9.43;;;2.30;99.90;;;;;;4991235;28;20486;-73
2022/03/07 04:43:29;;;;;;;16.38;9.70;;;2.20;99.90;;;;;;5003086;28;20113;-72
2022/03/07 04:45:55;;;;;;;16.48;9.43;;;2.20;99.90;;;;;;5003213;28;20036;-72
2022/03/07 04:48:22;;;;;;;16.02;8.85;;;2.20;99.90;;;;;;4988152;28;20126;-72
2022/03/07 04:50:48;;;;;;;17.73;9.05;;;2.20;99.90;;;;;;4972250;28;20058;-72
2022/03/07 04:53:14;;;;;;;19.27;9.27;;;2.10;99.90;;;;;;4990337;28;20053;-72
2022/03/07 04:55:39;;;;;;;16.15;9.32;;;2.10;99.90;;;;;;4988233;28;20054;-73
2022/03/07 04:58:05;;;;;;;17.30;9.32;;;2.10;99.90;;;;;;5004038;28;20034;-72
2022/03/07 05:00:31;;;;;;;14.32;9.38;;;2.00;99.90;;;;;;5009126;28;20030;-73
2022/03/07 05:02:56;;;;;;;14.95;9.05;;;2.00;99.90;;;;;;4991135;28;20095;-73
2022/03/07 05:05:22;;;;;;;15.68;9.48;;;2.00;99.90;;;;;;5001324;28;20169;-72
2022/03/07 05:07:50;;;;;;;18.05;9.88;;;1.90;99.90;;;;;;4972024;28;20057;-73
2022/03/07 05:10:18;;;;;;;16.17;9.65;;;1.90;99.90;;;;;;5007401;28;20037;-73
2022/03/07 05:12:44;;;;;;;15.13;9.27;;;1.90;99.90;;;;;;4996237;28;20165;-72
2022/03/07 05:15:11;;;;;;;15.98;9.68;;;1.80;99.90;;;;;;4994694;28;20544;-72
2022/03/07 05:17:48;;;;;;;15.13;9.70;;;1.80;99.90;;;;;;4994877;28;20050;-72
2022/03/07 05:20:15;;;;;;;15.18;9.07;;;1.70;99.90;;;;;;5012800;28;20096;-73
2022/03/07 05:22:42;;;;;;;18.17;9.38;;;1.70;99.90;;;;;;5011465;28;20089;-72
2022/03/07 05:25:09;;;;;;;17.20;9.15;;;1.60;99.90;;;;;;5010803;28;20117;-72
2022/03/07 05:27:35;;;;;;;16.80;10.15;;;1.60;99.90;;;;;;5005297;28;20053;-73
2022/03/07 05:30:01;;;;;;;15.45;9.30;;;1.50;99.90;;;;;;5002916;28;20025;-73
2022/03/07 05:32:26;;;;;;;17.88;10.05;;;1.50;99.90;;;;;;5012186;28;20390;-73
2022/03/07 05:34:52;;;;;;;19.00;10.90;;;1.50;99.90;;;;;;5007468;28;20447;-73
2022/03/07 05:37:17;;;;;;;19.17;10.73;;;1.40;99.90;;;;;;4993857;28;20426;-73
2022/03/07 05:39:43;;;;;;;18.80;10.77;;;1.40;99.90;;;;;;4992916;28;20034;-73
2022/03/07 05:42:08;;;;;;;21.65;10.88;;;1.40;99.90;;;;;;4984928;28;20339;-73
2022/03/07 05:44:34;;;;;;;19.65;10.18;;;1.30;99.90;;;;;;5000837;28;20038;-74
2022/03/07 05:47:00;;;;;;;15.20;10.55;;;1.30;99.90;;;;;;5012228;28;20065;-73
2022/03/07 05:49:25;;;;;;;16.20;10.02;;;1.30;99.90;;;;;;5012310;28;20084;-74
2022/03/07 05:51:51;;;;;;;20.20;10.63;;;1.30;99.90;;;;;;4994221;28;20164;-73
2022/03/07 05:54:16;;;;;;;19.23;10.32;;;1.20;99.90;;;;;;5011942;28;20037;-74
2022/03/07 05:56:42;;;;;;;18.80;10.90;;;1.20;99.90;;;;;;5010984;28;20742;-74
2022/03/07 05:59:08;;;;;;;18.48;10.25;;;1.20;99.90;;;;;;5010738;28;20037;-74
2022/03/07 06:01:33;;;;;;;15.40;9.85;;;1.10;99.90;;;;;;5007346;28;20035;-73
2022/03/07 06:04:00;;;;;;;22.40;11.13;;;1.10;99.90;;;;;;4993292;28;20019;-74
2022/03/07 06:06:25;;;;;;;18.20;10.18;;;1.10;99.90;;;;;;5005016;28;20022;-74
2022/03/07 06:08:51;;;;;;;21.73;11.52;;;1.10;99.90;;;;;;5003530;28;20584;-74
2022/03/07 06:11:17;;;;;;;20.45;11.38;;;1.10;99.90;;;;;;4976524;28;20026;-74
2022/03/07 06:13:43;;;;;;;17.13;11.00;;;1.00;99.90;;;;;;5006157;28;20526;-73
2022/03/07 06:16:08;;;;;;;18.85;11.20;;;1.00;99.90;;;;;;5008623;28;20102;-73
2022/03/07 06:18:34;;;;;;;18.02;10.90;;;1.00;99.90;;;;;;4993445;28;20034;-74
2022/03/07 06:21:00;;;;;;;19.20;10.65;;;1.00;99.90;;;;;;4998236;28;20076;-72
2022/03/07 06:23:25;;;;;;;20.58;11.25;;;1.00;99.90;;;;;;5012863;28;20034;-71
2022/03/07 06:25:51;;;;;;;16.73;11.10;;;1.00;99.90;;;;;;5010168;28;20057;-71
2022/03/07 06:28:16;;;;;;;19.05;11.25;;;1.10;99.90;;;;;;5008966;28;20018;-73
2022/03/07 06:30:46;;;;;;;18.25;10.48;;;1.00;99.90;;;;;;4991962;28;20062;-73
2022/03/07 06:33:13;;;;;;;16.92;10.85;;;1.00;99.90;;;;;;4993454;28;20053;-74
2022/03/07 06:35:38;;;;;;;17.02;10.18;;;1.10;99.90;;;;;;4996969;28;20125;-73
2022/03/07 06:38:04;;;;;;;22.30;11.55;;;1.10;99.90;;;;;;4994540;28;20101;-74
2022/03/07 06:40:30;;;;;;;18.13;11.18;;;1.10;99.90;;;;;;5006035;28;20026;-73
2022/03/07 06:42:55;;;;;;;20.88;12.02;;;1.10;99.90;;;;;;5009466;28;20262;-74
2022/03/07 06:45:21;;;;;;;21.38;12.07;;;1.20;99.90;;;;;;5003931;28;20030;-71
2022/03/07 06:47:47;;;;;;;25.77;12.25;;;1.20;99.90;;;;;;5004432;28;20030;-72
2022/03/07 06:50:14;;;;;;;20.08;11.55;;;1.20;99.90;;;;;;4998407;28;20026;-71
2022/03/07 06:52:40;;;;;;;20.23;11.57;;;1.20;99.90;;;;;;4996615;28;20026;-72
2022/03/07 06:55:06;;;;;;;21.65;11.60;;;1.20;99.90;;;;;;5005417;28;20242;-72
2022/03/07 06:57:32;;;;;;;22.90;12.70;;;1.30;99.90;;;;;;4991439;28;20034;-72
2022/03/07 06:59:57;;;;;;;24.38;12.65;;;1.30;99.90;;;;;;5005126;28;20124;-71
2022/03/07 07:02:23;;;;;;;21.33;11.88;;;1.30;99.90;;;;;;5001476;28;20040;-73
2022/03/07 07:04:48;;;;;;;21.42;12.63;;;1.40;99.90;;;;;;5004532;28;20033;-72
2022/03/07 07:07:15;;;;;;;19.55;12.30;;;1.40;99.90;;;;;;5006891;28;20034;-73
2022/03/07 07:09:41;;;;;;;21.40;12.82;;;1.40;99.90;;;;;;5004065;28;20030;-73
2022/03/07 07:12:08;;;;;;;23.35;12.00;;;1.40;99.90;;;;;;5000051;28;20033;-72
2022/03/07 07:14:34;;;;;;;20.48;12.38;;;1.40;99.90;;;;;;5004262;28;20084;-73
2022/03/07 07:17:00;;;;;;;20.52;12.80;;;1.50;99.90;;;;;;4997180;28;20045;-73
2022/03/07 07:19:25;;;;;;;21.83;13.05;;;1.50;99.90;;;;;;4980185;28;20030;-73
2022/03/07 07:21:51;;;;;;;26.92;13.35;;;1.50;99.90;;;;;;5005670;28;20075;-73
2022/03/07 07:24:17;;;;;;;20.65;13.07;;;1.50;99.90;;;;;;5003932;28;20022;-72
2022/03/07 07:26:42;;;;;;;22.90;12.15;;;1.50;99.90;;;;;;5001138;28;20037;-73
2022/03/07 07:29:08;;;;;;;25.92;13.73;;;1.50;99.90;;;;;;4994586;28;20034;-73
2022/03/07 07:31:33;;;;;;;25.20;13.45;;;1.60;99.90;;;;;;5002451;28;20339;-73
2022/03/07 07:33:59;;;;;;;26.40;14.15;;;1.60;99.90;;;;;;4997077;28;20092;-73
2022/03/07 07:36:25;;;;;;;24.63;13.38;;;1.70;99.90;;;;;;4998948;28;20029;-73
2022/03/07 07:38:50;;;;;;;25.00;13.55;;;1.70;99.90;;;;;;5001601;28;20109;-73
2022/03/07 07:41:16;;;;;;;21.00;13.30;;;1.70;99.90;;;;;;5006915;28;20791;-73
2022/03/07 07:43:41;;;;;;;21.13;13.27;;;1.70;99.90;;;;;;5007085;28;20026;-73
2022/03/07 07:46:07;;;;;;;26.40;14.18;;;1.80;99.90;;;;;;4997968;28;20020;-73
2022/03/07 07:48:32;;;;;;;22.10;13.02;;;1.80;99.90;;;;;;5009640;28;20039;-72
2022/03/07 07:50:58;;;;;;;27.33;14.43;;;1.80;99.90;;;;;;5009622;28;20030;-72
2022/03/07 07:53:23;;;;;;;24.70;13.63;;;1.90;99.90;;;;;;5003302;28;20033;-73
2022/03/07 07:55:49;;;;;;;26.45;14.05;;;1.90;99.90;;;;;;5006110;28;20018;-72
2022/03/07 07:58:15;;;;;;;26.38;13.55;;;2.00;99.90;;;;;;5004280;28;20030;-72
2022/03/07 08:00:40;;;;;;;23.25;13.57;;;2.00;99.90;;;;;;5005210;28;20030;-73
2022/03/07 08:03:07;;;;;;;21.92;13.45;;;2.10;99.90;;;;;;4980161;28;20029;-72
2022/03/07 08:05:33;;;;;;;23.30;13.68;;;2.10;99.90;;;;;;4995798;28;20035;-73
2022/03/07 08:07:59;;;;;;;20.98;13.85;;;2.10;99.90;;;;;;5000201;28;20481;-72
2022/03/07 08:10:24;;;;;;;25.20;13.88;;;2.20;99.90;;;;;;4982752;28;20429;-73
2022/03/07 08:12:50;;;;;;;23.13;13.13;;;2.20;99.90;;;;;;5003528;28;20026;-73
2022/03/07 08:15:16;;;;;;;24.58;14.38;;;2.30;99.90;;;;;;5001807;28;20017;-72
2022/03/07 08:17:49;;;;;;;23.30;14.18;;;2.30;99.90;;;;;;4982046;28;20053;-73
2022/03/07 08:20:16;;;;;;;25.88;13.38;;;2.40;99.90;;;;;;4996762;28;20038;-72
2022/03/07 08:22:43;;;;;;;24.00;13.88;;;2.50;99.90;;;;;;5000110;28;20016;-73
2022/03/07 08:25:10;;;;;;;21.17;12.98;;;2.50;99.90;;;;;;4997531;28;20109;-73
2022/03/07 08:27:36;;;;;;;22.70;14.50;;;2.60;99.90;;;;;;4978731;28;20074;-73
2022/03/07 08:30:06;;;;;;;22.67;14.70;;;2.70;99.90;;;;;;4996723;28;20120;-73
2022/03/07 08:32:32;;;;;;;21.98;12.82;;;2.80;99.90;;;;;;4979913;28;20525;-72
2022/03/07 08:34:57;;;;;;;26.05;13.30;;;2.90;99.90;;;;;;4999174;28;20331;-73
2022/03/07 08:37:23;;;;;;;21.10;13.00;;;2.90;99.90;;;;;;5005467;28;20354;-72
2022/03/07 08:39:48;;;;;;;20.20;12.82;;;3.10;99.90;;;;;;4988909;28;20030;-73
2022/03/07 08:42:14;;;;;;;19.40;12.25;;;3.10;99.90;;;;;;5006288;28;20084;-73
2022/03/07 08:44:39;;;;;;;17.60;11.82;;;3.20;99.90;;;;;;5007799;28;20084;-73
2022/03/07 08:47:05;;;;;;;20.20;11.32;;;3.30;99.90;;;;;;4997424;28;20054;-72
2022/03/07 08:49:31;;;;;;;17.38;11.43;;;3.40;99.90;;;;;;5007433;28;20076;-73
2022/03/07 08:51:56;;;;;;;19.33;11.50;;;3.60;99.90;;;;;;5010994;28;20393;-73
2022/03/07 08:54:22;;;;;;;16.98;10.23;;;3.60;99.90;;;;;;4976495;28;20140;-73
2022/03/07 08:56:47;;;;;;;17.92;11.23;;;3.70;99.90;;;;;;4984301;28;20026;-73
2022/03/07 08:59:13;;;;;;;16.90;10.50;;;3.80;99.90;;;;;;5004829;28;20030;-73
2022/03/07 09:01:38;;;;;;;18.70;10.77;;;4.00;99.90;;;;;;5006195;28;20029;-73
2022/03/07 09:04:04;;;;;;;14.02;9.88;;;4.10;99.90;;;;;;5003788;28;20026;-73
2022/03/07 09:06:29;;;;;;;19.67;10.20;;;4.20;99.90;;;;;;5008015;28;20448;-73
2022/03/07 09:08:55;;;;;;;15.15;8.57;;;4.40;99.90;;;;;;5002008;28;20034;-71
2022/03/07 09:11:21;;;;;;;14.35;9.32;;;4.50;99.90;;;;;;5009466;28;20026;-71
2022/03/07 09:13:47;;;;;;;14.25;8.68;;;4.60;99.90;;;;;;5007779;28;20038;-71
2022/03/07 09:16:14;;;;;;;16.70;9.27;;;4.70;99.90;;;;;;5004447;28;20050;-71
2022/03/07 09:18:40;;;;;;;11.00;7.82;;;4.90;99.90;;;;;;5004344;28;20034;-71
2022/03/07 09:21:05;;;;;;;12.65;7.78;;;5.00;99.90;;;;;;4989583;28;20113;-71
2022/03/07 09:23:37;;;;;;;10.77;7.18;;;5.10;99.90;;;;;;5007765;28;20537;-72
2022/03/07 09:26:06;;;;;;;10.02;7.43;;;5.20;99.90;;;;;;5008634;28;20108;-71
2022/03/07 09:28:33;;;;;;;10.55;7.20;;;5.30;99.90;;;;;;5008306;28;20080;-72
2022/03/07 09:30:59;;;;;;;10.23;6.20;;;5.40;99.90;;;;;;5011817;28;20026;-72
2022/03/07 09:33:25;;;;;;;8.68;6.38;;;5.50;99.90;;;;;;4999577;28;20026;-72
2022/03/07 09:35:51;;;;;;;8.52;6.38;;;5.50;99.90;;;;;;4987344;28;20030;-73
2022/03/07 09:38:16;;;;;;;8.68;6.13;;;5.60;99.90;;;;;;5008859;28;20034;-72
2022/03/07 09:40:42;;;;;;;9.68;6.70;;;5.70;99.90;;;;;;5007546;28;20446;-72
2022/03/07 09:43:08;;;;;;;13.68;6.78;;;5.80;99.90;;;;;;4997687;28;20026;-72
2022/03/07 09:45:34;;;;;;;9.50;6.40;;;6.00;99.90;;;;;;5004549;28;20113;-72
2022/03/07 09:48:00;;;;;;;11.60;6.75;;;6.00;99.90;;;;;;5005662;28;20086;-75
2022/03/07 09:50:26;;;;;;;9.43;6.90;;;6.10;99.90;;;;;;5011174;28;20153;-72
2022/03/07 09:52:54;;;;;;;10.02;6.30;;;6.10;99.90;;;;;;5009482;28;20390;-72
2022/03/07 09:55:23;;;;;;;9.00;6.10;;;6.20;99.90;;;;;;5004838;28;20026;-72
2022/03/07 09:57:49;;;;;;;8.40;6.35;;;6.20;99.90;;;;;;5005017;28;20030;-72
2022/03/07 10:00:16;;;;;;;10.13;5.97;;;6.30;99.90;;;;;;5007650;28;20018;-72
2022/03/07 10:03:05;;;;;;;9.57;6.82;;;6.40;99.90;;;;;;5006223;28;20034;-75
2022/03/07 10:05:37;;;;;;;6.85;5.65;;;6.50;99.90;;;;;;5010248;28;20442;-72
2022/03/07 10:08:04;;;;;;;8.00;5.22;;;6.70;99.90;;;;;;5006567;28;20041;-72
2022/03/07 10:10:32;;;;;;;7.45;6.25;;;6.70;99.90;;;;;;5004300;28;20713;-72
2022/03/07 10:13:01;;;;;;;8.15;5.90;;;6.80;99.90;;;;;;5002979;28;20031;-71
2022/03/07 10:15:27;;;;;;;10.85;5.90;;;6.80;99.90;;;;;;4988227;28;20462;-71
2022/03/07 10:17:54;;;;;;;9.88;6.68;;;6.80;99.90;;;;;;5001343;28;20125;-71
2022/03/07 10:20:23;;;;;;;9.40;6.90;;;6.90;99.90;;;;;;4990114;28;20563;-71
2022/03/07 10:22:54;;;;;;;12.00;6.20;;;6.90;99.90;;;;;;4998855;28;20026;-72
2022/03/07 10:25:28;;;;;;;8.30;6.13;;;7.00;99.90;;;;;;5001609;28;20022;-72
2022/03/07 10:27:55;;;;;;;9.83;6.33;;;7.00;99.90;;;;;;5000546;28;20053;-72
2022/03/07 10:30:24;;;;;;;10.70;7.22;;;7.10;99.90;;;;;;4974905;28;20118;-73
2022/03/07 10:32:57;;;;;;;11.40;7.10;;;7.20;99.90;;;;;;4978836;28;20049;-72
2022/03/07 10:35:34;;;;;;;9.98;7.18;;;7.20;99.90;;;;;;5007539;28;20485;-72
2022/03/07 10:38:06;;;;;;;11.38;6.90;;;7.20;99.90;;;;;;5010736;28;20038;-72
2022/03/07 10:40:36;;;;;;;9.15;6.90;;;7.30;99.90;;;;;;5011080;28;20096;-74
2022/03/07 10:43:04;;;;;;;10.88;6.93;;;7.30;99.90;;;;;;4992627;28;20029;-72
2022/03/07 10:45:31;;;;;;;9.60;7.38;;;7.30;99.90;;;;;;4990885;28;20026;-72
2022/03/07 10:48:00;;;;;;;14.88;7.32;;;7.30;99.90;;;;;;5006032;28;20052;-72
2022/03/07 10:50:28;;;;;;;11.77;7.25;;;7.40;99.90;;;;;;5011046;28;20080;-72
2022/03/07 10:53:00;;;;;;;11.00;7.30;;;7.50;99.90;;;;;;5010437;28;20033;-72
2022/03/07 10:55:28;;;;;;;8.90;6.78;;;7.60;99.80;;;;;;4993044;28;20018;-72
2022/03/07 10:58:07;;;;;;;8.65;6.60;;;7.60;98.90;;;;;;4998654;28;20101;-72
2022/03/07 11:00:34;;;;;;;9.70;6.85;;;7.60;98.50;;;;;;5011200;28;20105;-72
2022/03/07 11:03:00;;;;;;;13.07;6.85;;;7.70;98.80;;;;;;5002721;28;20304;-72
2022/03/07 11:05:26;;;;;;;11.98;6.78;;;7.80;98.50;;;;;;5011020;28;20033;-72
2022/03/07 11:07:52;;;;;;;8.95;6.70;;;7.90;96.60;;;;;;5009885;28;20030;-72
2022/03/07 11:10:18;;;;;;;10.18;6.82;;;7.90;97.50;;;;;;5010658;28;20399;-72
2022/03/07 11:12:45;;;;;;;11.65;6.93;;;8.00;96.80;;;;;;5005718;28;20041;-72
2022/03/07 11:15:14;;;;;;;9.70;6.40;;;8.00;96.40;;;;;;4977762;28;20022;-72
2022/03/07 11:17:45;;;;;;;9.68;6.47;;;8.00;96.20;;;;;;4971977;28;20054;-72
2022/03/07 11:20:14;;;;;;;8.90;6.60;;;8.20;96.10;;;;;;4990545;28;20029;-72
2022/03/07 11:22:40;;;;;;;7.97;6.10;;;8.20;94.90;;;;;;5003292;28;20033;-71
2022/03/07 11:25:07;;;;;;;7.95;6.47;;;8.20;94.60;;;;;;4992099;28;20030;-71
2022/03/07 11:27:35;;;;;;;9.43;6.47;;;8.10;94.00;;;;;;5009585;28;20509;-72
2022/03/07 11:30:16;;;;;;;11.88;6.40;;;8.10;93.50;;;;;;4993384;28;20109;-72
2022/03/07 11:32:42;;;;;;;8.65;6.50;;;8.00;93.60;;;;;;4999458;28;20041;-72
2022/03/07 11:35:09;;;;;;;8.00;6.38;;;8.00;93.60;;;;;;4983138;28;20030;-72
2022/03/07 11:37:34;;;;;;;9.65;6.45;;;8.10;94.00;;;;;;4997900;28;20129;-72
2022/03/07 11:40:03;;;;;;;9.75;6.63;;;8.20;93.90;;;;;;5004053;28;20601;-72
2022/03/07 11:42:39;;;;;;;9.45;7.30;;;8.20;93.60;;;;;;5001651;28;20101;-72
2022/03/07 11:45:07;;;;;;;9.15;6.38;;;8.40;93.40;;;;;;4998611;28;20436;-72
2022/03/07 11:47:38;;;;;;;10.35;6.60;;;8.40;93.20;;;;;;4999961;28;20026;-72
2022/03/07 11:50:05;;;;;;;8.98;6.47;;;8.50;92.70;;;;;;4998419;28;20363;-72
2022/03/07 11:52:30;;;;;;;8.93;6.95;;;8.50;91.70;;;;;;5003632;28;20018;-72
2022/03/07 11:54:59;;;;;;;11.32;6.97;;;8.50;91.90;;;;;;4997827;28;20028;-72
2022/03/07 11:57:37;;;;;;;8.07;6.40;;;8.50;91.60;;;;;;5003493;28;20062;-72
2022/03/07 12:00:21;;;;;;;10.45;6.47;;;8.50;91.50;;;;;;4982512;28;20394;-72
2022/03/07 12:02:53;;;;;;;9.65;6.90;;;8.60;91.70;;;;;;4987664;28;20019;-73
2022/03/07 12:05:28;;;;;;;9.82;6.40;;;8.70;91.70;;;;;;5006879;28;20044;-73
2022/03/07 12:08:09;;;;;;;8.52;6.60;;;8.70;90.10;;;;;;4999946;28;20027;-73
2022/03/07 12:10:36;;;;;;;10.05;6.78;;;8.60;90.00;;;;;;5001924;28;20026;-74
2022/03/07 12:13:06;;;;;;;9.23;6.45;;;8.60;90.50;;;;;;5003200;28;20018;-73
2022/03/07 12:15:43;;;;;;;10.15;6.70;;;8.70;90.50;;;;;;5002225;28;20045;-73
2022/03/07 12:18:09;;;;;;;7.75;6.47;;;8.80;90.30;;;;;;4971502;28;20057;-73
2022/03/07 12:20:44;;;;;;;9.07;6.25;;;8.90;90.20;;;;;;4986331;28;20022;-73
2022/03/07 12:23:10;;;;;;;6.95;5.78;;;8.90;90.00;;;;;;4982010;28;20065;-73
2022/03/07 12:25:36;;;;;;;10.05;6.30;;;9.00;89.60;;;;;;4982154;28;20200;-74
2022/03/07 12:28:03;;;;;;;9.68;6.40;;;9.10;88.60;;;;;;4987534;28;20109;-73
2022/03/07 12:30:29;;;;;;;8.13;6.55;;;9.20;88.60;;;;;;4988471;28;20018;-73
2022/03/07 12:32:54;;;;;;;9.75;6.22;;;9.30;88.90;;;;;;4987962;28;20062;-74
2022/03/07 12:35:20;;;;;;;8.85;6.28;;;9.40;88.10;;;;;;4987794;28;20467;-73
2022/03/07 12:37:45;;;;;;;10.25;6.60;;;9.40;86.30;;;;;;4985990;28;20477;-73
2022/03/07 12:40:11;;;;;;;8.18;6.05;;;9.40;85.90;;;;;;4986191;28;20026;-74
2022/03/07 12:42:40;;;;;;;9.30;5.95;;;9.40;84.70;;;;;;4967337;28;20039;-73